createdAt,value
2023-02-22T00:00:19.831Z,68.14
2023-02-22T00:05:53.628Z,68.33
2023-02-22T00:11:15.037Z,68.01
2023-02-22T00:16:35.908Z,68.13
2023-02-22T00:21:58.091Z,67.91
2023-02-22T00:27:18.617Z,68.14
2023-02-22T00:32:39.282Z,68.30
2023-02-22T00:38:02.007Z,68.32
2023-02-22T00:43:23.103Z,68.19
2023-02-22T00:48:44.594Z,68.49
2023-02-22T00:54:05.531Z,68.61
2023-02-22T00:59:27.292Z,68.38
2023-02-22T01:04:48.052Z,68.49
2023-02-22T01:10:10.239Z,68.77
2023-02-22T01:15:31.843Z,68.59
2023-02-22T01:20:53.147Z,68.44
2023-02-22T01:26:13.716Z,68.36
2023-02-22T01:31:34.463Z,68.71
2023-02-22T01:36:55.056Z,68.76
2023-02-22T01:42:16.517Z,68.78
2023-02-22T01:47:37.934Z,68.94
2023-02-22T01:53:00.590Z,69.43
2023-02-22T01:58:24.012Z,69.08
2023-02-22T02:03:45.377Z,69.03
2023-02-22T02:09:47.207Z,69.03
2023-02-22T02:15:29.770Z,68.92
2023-02-22T02:21:09.188Z,69.01
2023-02-22T02:27:09.193Z,68.97
2023-02-22T02:32:53.941Z,68.96
2023-02-22T02:38:39.443Z,69.53
2023-02-22T02:44:06.043Z,69.37
2023-02-22T02:49:44.124Z,69.05
2023-02-22T02:55:07.936Z,68.95
2023-02-22T03:00:39.254Z,68.75
2023-02-22T03:06:12.107Z,68.79
2023-02-22T03:11:48.628Z,69.03
2023-02-22T03:17:49.081Z,68.90
2023-02-22T03:23:25.305Z,68.80
2023-02-22T03:28:48.541Z,68.75
2023-02-22T03:34:19.227Z,69.01
2023-02-22T03:39:43.744Z,69.21
2023-02-22T03:45:09.998Z,69.36
2023-02-22T03:50:36.055Z,69.02
2023-02-22T03:56:00.662Z,68.90
2023-02-22T04:01:23.773Z,68.98
2023-02-22T04:06:45.267Z,68.92
2023-02-22T04:12:08.514Z,68.98
2023-02-22T04:17:44.548Z,69.33
2023-02-22T04:23:08.235Z,68.55
2023-02-22T04:28:32.388Z,68.94
2023-02-22T04:34:09.218Z,68.97
2023-02-22T04:39:34.141Z,69.38
2023-02-22T04:44:54.771Z,69.01
2023-02-22T04:50:17.000Z,68.93
2023-02-22T04:55:37.601Z,69.19
2023-02-22T05:00:59.032Z,69.71
2023-02-22T05:06:20.841Z,69.49
2023-02-22T05:11:41.719Z,69.06
2023-02-22T05:17:03.354Z,69.39
2023-02-22T05:22:24.537Z,69.36
2023-02-22T05:27:45.288Z,69.27
2023-02-22T05:33:06.320Z,69.26
2023-02-22T05:38:27.389Z,69.55
2023-02-22T05:43:48.524Z,69.50
2023-02-22T05:49:09.459Z,69.32
2023-02-22T05:54:30.061Z,69.09
2023-02-22T05:59:50.814Z,69.28
2023-02-22T06:05:11.764Z,69.30
2023-02-22T06:10:32.643Z,69.72
2023-02-22T06:15:53.774Z,69.24
2023-02-22T06:21:14.474Z,69.44
2023-02-22T06:26:36.129Z,69.24
2023-02-22T06:31:59.085Z,69.28
2023-02-22T06:37:20.133Z,69.40
2023-02-22T06:42:41.490Z,69.77
2023-02-22T06:48:02.069Z,69.88
2023-02-22T06:53:22.891Z,69.70
2023-02-22T06:58:43.734Z,69.57
2023-02-22T07:04:04.475Z,69.60
2023-02-22T07:09:25.343Z,69.49
2023-02-22T07:14:46.303Z,69.71
2023-02-22T07:20:08.112Z,69.70
2023-02-22T07:25:28.802Z,70.21
2023-02-22T07:30:49.488Z,69.93
2023-02-22T07:36:10.311Z,69.17
2023-02-22T07:41:30.843Z,70.04
2023-02-22T07:46:51.437Z,69.50
2023-02-22T07:52:12.798Z,69.86
2023-02-22T07:57:33.408Z,69.68
2023-02-22T08:02:54.521Z,69.28
2023-02-22T08:08:18.203Z,69.37
2023-02-22T08:13:40.404Z,69.59
2023-02-22T08:19:01.028Z,69.73
2023-02-22T08:24:21.802Z,69.28
2023-02-22T08:29:42.529Z,70.04
2023-02-22T08:35:03.739Z,69.50
2023-02-22T08:40:27.816Z,69.31
2023-02-22T08:45:49.578Z,69.60
2023-02-22T08:51:10.226Z,69.57
2023-02-22T08:56:30.931Z,69.28
2023-02-22T09:01:51.843Z,69.74
2023-02-22T09:07:12.782Z,69.61
2023-02-22T09:12:33.824Z,70.01
2023-02-22T09:17:54.674Z,69.01
2023-02-22T09:23:15.322Z,69.70
2023-02-22T09:28:36.468Z,69.52
2023-02-22T09:33:57.254Z,69.09
2023-02-22T09:39:18.787Z,69.06
2023-02-22T09:44:48.835Z,69.31
2023-02-22T09:50:15.919Z,69.47
2023-02-22T09:55:41.229Z,69.39
2023-02-22T10:01:18.832Z,68.74
2023-02-22T10:06:44.221Z,68.56
2023-02-22T10:12:28.108Z,68.82
2023-02-22T10:18:09.222Z,68.51
2023-02-22T10:23:32.671Z,67.97
2023-02-22T10:29:01.277Z,68.58
2023-02-22T10:34:28.461Z,68.19
2023-02-22T10:39:53.024Z,68.37
2023-02-22T10:45:23.714Z,67.86
2023-02-22T10:50:46.714Z,68.44
2023-02-22T10:56:10.473Z,68.28
2023-02-22T11:01:31.089Z,68.29
2023-02-22T11:07:01.457Z,68.11
2023-02-22T11:12:29.437Z,67.60
2023-02-22T11:17:55.789Z,67.76
2023-02-22T11:23:23.581Z,67.08
2023-02-22T11:28:50.717Z,67.59
2023-02-22T11:34:33.495Z,67.02
2023-02-22T11:40:23.642Z,66.74
2023-02-22T11:46:06.088Z,66.69
2023-02-22T11:51:48.599Z,66.23
2023-02-22T11:58:01.594Z,66.67
2023-02-22T12:03:40.540Z,66.73
2023-02-22T12:09:14.122Z,66.31
2023-02-22T12:14:42.031Z,66.72
2023-02-22T12:20:22.164Z,66.30
2023-02-22T12:26:05.720Z,66.43
2023-02-22T12:32:07.834Z,66.08
2023-02-22T12:37:38.716Z,66.24
2023-02-22T12:43:12.808Z,66.16
2023-02-22T12:48:36.488Z,66.11
2023-02-22T12:54:16.476Z,65.79
2023-02-22T12:59:54.968Z,65.74
2023-02-22T13:05:20.914Z,65.58
2023-02-22T13:11:01.626Z,65.60
2023-02-22T13:16:36.493Z,65.38
2023-02-22T13:22:20.189Z,65.16
2023-02-22T13:27:52.825Z,64.85
2023-02-22T13:33:31.886Z,65.24
2023-02-22T13:39:11.039Z,64.87
2023-02-22T13:44:59.781Z,65.01
2023-02-22T13:50:49.036Z,65.15
2023-02-22T13:56:11.709Z,65.07
2023-02-22T14:01:40.456Z,64.85
2023-02-22T14:07:25.112Z,64.63
2023-02-22T14:12:50.260Z,65.35
2023-02-22T14:18:17.068Z,64.61
2023-02-22T14:23:40.401Z,64.21
2023-02-22T14:29:14.276Z,64.25
2023-02-22T14:35:00.862Z,64.02
2023-02-22T14:40:37.284Z,64.17
2023-02-22T14:46:01.380Z,64.13
2023-02-22T14:51:41.676Z,64.40
2023-02-22T14:57:18.749Z,64.55
2023-02-22T15:02:43.347Z,64.58
2023-02-22T15:08:07.986Z,64.54
2023-02-22T15:13:33.182Z,64.83
2023-02-22T15:18:57.383Z,64.86
2023-02-22T15:24:22.973Z,65.03
2023-02-22T15:29:45.680Z,65.22
2023-02-22T15:35:30.544Z,65.46
2023-02-22T15:41:03.786Z,65.43
2023-02-22T15:46:24.360Z,65.57
2023-02-22T15:51:49.164Z,65.39
2023-02-22T15:57:13.136Z,65.71
2023-02-22T16:02:39.474Z,65.77
2023-02-22T16:08:00.660Z,65.72
2023-02-22T16:13:31.472Z,66.09
2023-02-22T16:18:53.523Z,66.13
2023-02-22T16:24:26.108Z,65.81
2023-02-22T16:30:27.994Z,66.16
2023-02-22T16:35:52.399Z,66.03
2023-02-22T16:41:16.209Z,66.17
2023-02-22T16:46:38.034Z,66.51
2023-02-22T16:52:06.689Z,66.63
2023-02-22T16:57:32.194Z,66.79
2023-02-22T17:02:54.004Z,67.00
2023-02-22T17:08:16.454Z,66.88
2023-02-22T17:13:38.572Z,66.80
2023-02-22T17:19:00.163Z,67.06
2023-02-22T17:24:24.407Z,66.86
2023-02-22T17:29:45.274Z,66.79
2023-02-22T17:35:06.523Z,67.20
2023-02-22T17:40:29.039Z,66.54
2023-02-22T17:45:49.803Z,67.12
2023-02-22T17:51:12.046Z,66.80
2023-02-22T17:56:32.732Z,66.93
2023-02-22T18:01:53.538Z,67.02
2023-02-22T18:07:16.452Z,66.84
2023-02-22T18:12:41.725Z,66.94
2023-02-22T18:18:05.255Z,66.72
2023-02-22T18:23:27.976Z,66.89
2023-02-22T18:28:49.149Z,66.93
2023-02-22T18:34:12.953Z,66.69
2023-02-22T18:39:40.743Z,66.76
2023-02-22T18:45:04.409Z,66.63
2023-02-22T18:50:25.096Z,66.88
2023-02-22T18:55:46.038Z,66.82
2023-02-22T19:01:07.192Z,66.44
2023-02-22T19:06:27.992Z,66.85
2023-02-22T19:11:50.896Z,66.98
2023-02-22T19:17:16.201Z,66.75
2023-02-22T19:28:01.687Z,66.83
2023-02-22T19:33:26.135Z,66.49
2023-02-22T19:38:47.220Z,66.66
2023-02-22T19:44:08.623Z,66.86
2023-02-22T19:49:30.255Z,66.77
2023-02-22T19:54:54.414Z,66.66
2023-02-22T20:00:24.259Z,66.77
2023-02-22T20:05:46.497Z,67.17
2023-02-22T20:11:07.709Z,67.02
2023-02-22T20:16:30.115Z,67.19
2023-02-22T20:21:58.288Z,67.07
2023-02-22T20:27:18.861Z,67.28
2023-02-22T20:32:39.906Z,67.28
2023-02-22T20:38:01.491Z,67.25
2023-02-22T20:43:23.149Z,67.23
2023-02-22T20:48:45.400Z,67.28
2023-02-22T20:54:08.544Z,67.33
2023-02-22T20:59:30.394Z,67.46
2023-02-22T21:04:51.401Z,67.32
2023-02-22T21:10:13.455Z,67.43
2023-02-22T21:15:36.362Z,67.20
2023-02-22T21:20:57.320Z,67.23
2023-02-22T21:26:24.592Z,67.38
2023-02-22T21:31:46.120Z,67.17
2023-02-22T21:37:08.391Z,67.23
2023-02-22T21:42:29.499Z,67.34
2023-02-22T21:47:54.590Z,67.40
2023-02-22T21:53:15.411Z,66.94
2023-02-22T21:58:36.543Z,67.19
2023-02-22T22:03:59.959Z,66.69
2023-02-22T22:09:23.639Z,67.12
2023-02-22T22:14:44.888Z,67.23
2023-02-22T22:20:06.316Z,67.35
2023-02-22T22:25:28.359Z,67.04
2023-02-22T22:30:49.462Z,67.26
2023-02-22T22:36:13.240Z,66.87
2023-02-22T22:41:34.143Z,67.28
2023-02-22T22:46:54.955Z,67.59
2023-02-22T22:52:18.734Z,67.75
2023-02-22T22:57:40.661Z,67.48
2023-02-22T23:03:01.452Z,67.49
2023-02-22T23:08:29.277Z,67.26
2023-02-22T23:13:50.286Z,67.45
2023-02-22T23:19:11.564Z,66.81
2023-02-22T23:24:39.573Z,66.76
2023-02-22T23:30:00.559Z,67.13
2023-02-22T23:35:21.280Z,66.51
2023-02-22T23:40:44.791Z,66.56
2023-02-22T23:46:10.839Z,67.14
2023-02-22T23:51:42.057Z,67.16
2023-02-22T23:57:04.225Z,67.20
